createdAt,value
2023-03-02T00:00:48.275Z,101562.98
2023-03-02T00:01:50.120Z,101562.98
2023-03-02T00:02:51.989Z,101553.50
2023-03-02T00:03:53.798Z,101555.25
2023-03-02T00:04:55.652Z,101560.33
2023-03-02T00:05:57.459Z,101558.55
2023-03-02T00:06:59.310Z,101558.55
2023-03-02T00:08:01.104Z,101569.70
2023-03-02T00:09:02.898Z,101568.79
2023-03-02T00:10:04.812Z,101564.47
2023-03-02T00:11:06.610Z,101561.81
2023-03-02T00:12:08.479Z,101562.69
2023-03-02T00:13:10.292Z,101559.95
2023-03-02T00:14:12.099Z,101554.66
2023-03-02T00:15:13.897Z,101550.23
2023-03-02T00:16:15.771Z,101556.21
2023-03-02T00:17:17.655Z,101556.94
2023-03-02T00:18:19.488Z,101560.23
2023-03-02T00:19:21.290Z,101557.51
2023-03-02T00:20:23.088Z,101564.29
2023-03-02T00:21:24.910Z,101562.51
2023-03-02T00:22:26.765Z,101558.16
2023-03-02T00:23:28.558Z,101557.28
2023-03-02T00:24:30.360Z,101555.50
2023-03-02T00:25:32.167Z,101553.75
2023-03-02T00:26:34.333Z,101558.83
2023-03-02T00:27:36.414Z,101557.92
2023-03-02T00:28:38.241Z,101555.27
2023-03-02T00:29:40.033Z,101556.11
2023-03-02T00:30:41.830Z,101554.25
2023-03-02T00:31:43.698Z,101554.17
2023-03-02T00:32:45.497Z,101552.31
2023-03-02T00:33:47.315Z,101542.77
2023-03-02T00:34:49.103Z,101553.07
2023-03-02T00:35:50.964Z,101546.14
2023-03-02T00:36:52.719Z,101552.16
2023-03-02T00:37:54.562Z,101545.34
2023-03-02T00:38:56.390Z,101555.64
2023-03-02T00:39:58.196Z,101547.92
2023-03-02T00:40:59.992Z,101554.73
2023-03-02T00:42:01.812Z,101551.29
2023-03-02T00:43:03.689Z,101547.02
2023-03-02T00:44:05.465Z,101557.31
2023-03-02T00:45:07.268Z,101550.49
2023-03-02T00:46:09.763Z,101556.44
2023-03-02T00:47:11.583Z,101549.52
2023-03-02T00:48:13.447Z,101554.66
2023-03-02T00:49:15.261Z,101548.56
2023-03-02T00:50:17.157Z,101556.21
2023-03-02T00:51:18.970Z,101554.51
2023-03-02T00:52:20.768Z,101551.86
2023-03-02T00:53:22.642Z,101555.23
2023-03-02T00:54:24.560Z,101554.36
2023-03-02T00:55:26.360Z,101550.91
2023-03-02T00:56:28.186Z,101554.36
2023-03-02T00:57:29.991Z,101549.13
2023-03-02T00:58:31.844Z,101551.70
2023-03-02T00:59:33.657Z,101560.23
2023-03-02T01:00:35.465Z,101557.65
2023-03-02T01:01:37.265Z,101556.70
2023-03-02T01:02:39.253Z,101560.90
2023-03-02T01:03:41.117Z,101556.63
2023-03-02T01:04:42.933Z,101562.56
2023-03-02T01:05:44.733Z,101563.39
2023-03-02T01:06:46.560Z,101565.97
2023-03-02T01:07:48.345Z,101565.06
2023-03-02T01:08:50.201Z,101558.96
2023-03-02T01:09:52.006Z,101557.18
2023-03-02T01:10:54.422Z,101555.36
2023-03-02T01:11:56.236Z,101556.16
2023-03-02T01:12:58.061Z,101558.65
2023-03-02T01:13:59.913Z,101556.88
2023-03-02T01:15:01.705Z,101551.64
2023-03-02T01:16:03.557Z,101554.14
2023-03-02T01:17:05.414Z,101557.51
2023-03-02T01:18:07.236Z,101553.11
2023-03-02T01:19:09.096Z,101556.48
2023-03-02T01:20:11.210Z,101555.52
2023-03-02T01:21:13.029Z,101558.89
2023-03-02T01:22:14.827Z,101560.67
2023-03-02T01:23:16.622Z,101556.40
2023-03-02T01:24:18.489Z,101558.97
2023-03-02T01:25:20.207Z,101560.67
2023-03-02T01:26:22.115Z,101556.31
2023-03-02T01:27:23.927Z,101563.25
2023-03-02T01:28:25.716Z,101563.25
2023-03-02T01:29:27.572Z,101565.82
2023-03-02T01:30:29.375Z,101567.48
2023-03-02T01:31:31.302Z,101558.89
2023-03-02T01:32:33.121Z,101559.77
2023-03-02T01:33:35.006Z,101560.59
2023-03-02T01:34:36.843Z,101563.09
2023-03-02T01:35:38.673Z,101567.33
2023-03-02T01:36:40.464Z,101572.48
2023-03-02T01:37:42.154Z,101563.02
2023-03-02T01:38:45.152Z,101574.97
2023-03-02T01:39:47.058Z,101574.10
2023-03-02T01:40:48.824Z,101568.87
2023-03-02T01:41:50.616Z,101571.37
2023-03-02T01:42:52.469Z,101572.16
2023-03-02T01:43:54.245Z,101566.14
2023-03-02T01:44:56.091Z,101570.41
2023-03-02T01:45:58.032Z,101572.00
2023-03-02T01:46:59.895Z,101569.34
2023-03-02T01:48:01.698Z,101582.13
2023-03-02T01:49:03.492Z,101580.36
2023-03-02T01:50:05.675Z,101569.98
2023-03-02T01:51:07.464Z,101576.83
2023-03-02T01:52:09.256Z,101575.95
2023-03-02T01:53:11.056Z,101581.10
2023-03-02T01:54:12.859Z,101579.23
2023-03-02T01:55:14.711Z,101574.97
2023-03-02T01:56:16.524Z,101573.14
2023-03-02T01:57:18.326Z,101580.03
2023-03-02T01:58:20.137Z,101572.31
2023-03-02T01:59:21.931Z,101581.73
2023-03-02T02:00:23.798Z,101579.16
2023-03-02T02:01:25.661Z,101575.63
2023-03-02T02:02:27.506Z,101583.34
2023-03-02T02:03:29.299Z,101574.72
2023-03-02T02:04:31.114Z,101571.27
2023-03-02T02:05:32.983Z,101573.84
2023-03-02T02:06:35.012Z,101577.22
2023-03-02T02:07:36.895Z,101568.63
2023-03-02T02:08:38.722Z,101570.32
2023-03-02T02:09:40.503Z,101567.75
2023-03-02T02:10:42.546Z,101566.84
2023-03-02T02:11:44.362Z,101577.96
2023-03-02T02:12:46.135Z,101572.81
2023-03-02T02:13:47.980Z,101576.17
2023-03-02T02:14:49.749Z,101571.83
2023-03-02T02:15:51.614Z,101576.17
2023-03-02T02:16:53.444Z,101575.30
2023-03-02T02:17:55.203Z,101574.31
2023-03-02T02:18:57.005Z,101571.74
2023-03-02T02:19:58.798Z,101581.16
2023-03-02T02:21:00.858Z,101575.03
2023-03-02T02:22:02.666Z,101572.45
2023-03-02T02:23:04.452Z,101569.80
2023-03-02T02:24:06.336Z,101575.85
2023-03-02T02:25:08.149Z,101576.64
2023-03-02T02:26:10.048Z,101574.08
2023-03-02T02:27:11.809Z,101575.77
2023-03-02T02:28:13.612Z,101573.98
2023-03-02T02:29:15.418Z,101580.91
2023-03-02T02:30:17.223Z,101576.56
2023-03-02T02:31:19.134Z,101576.56
2023-03-02T02:32:21.097Z,101574.78
2023-03-02T02:33:22.994Z,101574.78
2023-03-02T02:34:24.890Z,101576.48
2023-03-02T02:35:26.688Z,101573.83
2023-03-02T02:36:28.534Z,101572.05
2023-03-02T02:37:30.347Z,101568.59
2023-03-02T02:38:32.153Z,101566.03
2023-03-02T02:39:33.945Z,101572.05
2023-03-02T02:40:35.747Z,101574.62
2023-03-02T02:41:37.596Z,101572.95
2023-03-02T02:42:39.425Z,101572.95
2023-03-02T02:43:41.222Z,101568.69
2023-03-02T02:44:42.908Z,101567.89
2023-03-02T02:45:44.787Z,101569.55
2023-03-02T02:46:46.682Z,101568.77
2023-03-02T02:47:48.497Z,101572.13
2023-03-02T02:48:50.303Z,101567.89
2023-03-02T02:49:52.091Z,101564.41
2023-03-02T02:50:53.885Z,101573.03
2023-03-02T02:51:55.741Z,101569.55
2023-03-02T02:52:57.544Z,101570.38
2023-03-02T02:53:59.353Z,101567.89
2023-03-02T02:55:01.139Z,101574.70
2023-03-02T02:56:03.173Z,101576.48
2023-03-02T02:57:05.020Z,101571.25
2023-03-02T02:58:06.812Z,101571.25
2023-03-02T02:59:08.619Z,101576.40
2023-03-02T03:00:10.931Z,101581.55
2023-03-02T03:01:12.778Z,101571.34
2023-03-02T03:02:14.784Z,101576.48
2023-03-02T03:03:16.593Z,101581.63
2023-03-02T03:04:18.411Z,101575.61
2023-03-02T03:05:20.199Z,101575.61
2023-03-02T03:06:22.010Z,101575.52
2023-03-02T03:07:23.866Z,101581.55
2023-03-02T03:08:25.670Z,101579.77
2023-03-02T03:09:27.536Z,101581.46
2023-03-02T03:10:29.363Z,101576.23
2023-03-02T03:11:31.168Z,101572.78
2023-03-02T03:12:33.136Z,101575.36
2023-03-02T03:13:34.937Z,101583.95
2023-03-02T03:14:36.739Z,101579.59
2023-03-02T03:15:38.541Z,101589.18
2023-03-02T03:16:40.379Z,101586.61
2023-03-02T03:17:42.210Z,101585.81
2023-03-02T03:18:44.004Z,101584.12
2023-03-02T03:19:45.801Z,101593.53
2023-03-02T03:20:47.607Z,101594.33
2023-03-02T03:21:49.420Z,101590.05
2023-03-02T03:22:51.269Z,101585.73
2023-03-02T03:23:53.069Z,101591.83
2023-03-02T03:24:54.874Z,101596.02
2023-03-02T03:25:56.693Z,101582.33
2023-03-02T03:26:58.502Z,101583.16
2023-03-02T03:28:00.339Z,101586.69
2023-03-02T03:29:02.135Z,101582.33
2023-03-02T03:30:04.188Z,101585.81
2023-03-02T03:31:06.085Z,101582.42
2023-03-02T03:32:07.899Z,101590.13
2023-03-02T03:33:09.739Z,101587.56
2023-03-02T03:34:11.556Z,101593.53
2023-03-02T03:35:13.376Z,101590.05
2023-03-02T03:36:15.688Z,101592.63
2023-03-02T03:37:17.495Z,101595.20
2023-03-02T03:38:19.340Z,101593.53
2023-03-02T03:39:21.159Z,101592.63
2023-03-02T03:40:23.043Z,101598.67
2023-03-02T03:41:24.851Z,101595.20
2023-03-02T03:42:26.664Z,101599.47
2023-03-02T03:43:28.512Z,101597.77
2023-03-02T03:44:30.310Z,101591.75
2023-03-02T03:45:32.327Z,101591.75
2023-03-02T03:46:34.621Z,101596.81
2023-03-02T03:47:36.665Z,101599.38
2023-03-02T03:48:38.502Z,101595.03
2023-03-02T03:49:40.303Z,101598.52
2023-03-02T03:50:42.119Z,101595.03
2023-03-02T03:51:43.912Z,101601.88
2023-03-02T03:52:45.750Z,101597.52
2023-03-02T03:53:47.591Z,101602.66
2023-03-02T03:54:49.401Z,101604.36
2023-03-02T03:55:51.202Z,101607.81
2023-03-02T03:56:53.034Z,101601.88
2023-03-02T03:57:54.854Z,101603.57
2023-03-02T03:58:56.715Z,101604.45
2023-03-02T03:59:58.506Z,101611.29
2023-03-02T04:01:00.312Z,101608.64
2023-03-02T04:02:02.124Z,101612.08
2023-03-02T04:03:03.942Z,101606.06
2023-03-02T04:04:05.785Z,101606.94
2023-03-02T04:05:07.602Z,101604.28
2023-03-02T04:06:09.702Z,101601.79
2023-03-02T04:07:11.502Z,101601.00
2023-03-02T04:08:13.204Z,101606.94
2023-03-02T04:09:15.054Z,101594.08
2023-03-02T04:10:16.965Z,101598.42
2023-03-02T04:11:18.780Z,101604.45
2023-03-02T04:12:20.597Z,101605.23
2023-03-02T04:13:22.487Z,101609.59
2023-03-02T04:14:24.382Z,101606.14
2023-03-02T04:15:26.240Z,101607.89
2023-03-02T04:16:28.006Z,101605.32
2023-03-02T04:17:29.812Z,101604.45
2023-03-02T04:18:31.611Z,101607.02
2023-03-02T04:19:33.466Z,101613.04
2023-03-02T04:20:35.295Z,101615.61
2023-03-02T04:21:37.102Z,101607.89
2023-03-02T04:22:38.899Z,101608.72
2023-03-02T04:23:40.720Z,101608.72
2023-03-02T04:24:42.582Z,101608.72
2023-03-02T04:25:44.379Z,101609.50
2023-03-02T04:26:46.196Z,101605.23
2023-03-02T04:27:47.990Z,101609.50
2023-03-02T04:28:49.820Z,101604.36
2023-03-02T04:29:51.781Z,101607.81
2023-03-02T04:30:53.688Z,101607.81
2023-03-02T04:31:55.617Z,101615.52
2023-03-02T04:32:57.437Z,101612.08
2023-03-02T04:33:59.226Z,101606.06
2023-03-02T04:35:01.084Z,101612.95
2023-03-02T04:36:02.920Z,101607.81
2023-03-02T04:37:04.710Z,101611.20
2023-03-02T04:38:06.519Z,101610.38
2023-03-02T04:39:08.322Z,101613.86
2023-03-02T04:40:10.693Z,101610.47
2023-03-02T04:41:12.492Z,101611.29
2023-03-02T04:42:14.307Z,101612.16
2023-03-02T04:43:16.132Z,101607.89
2023-03-02T04:44:17.945Z,101610.47
2023-03-02T04:45:19.797Z,101610.47
2023-03-02T04:46:21.693Z,101612.25
2023-03-02T04:47:23.518Z,101608.88
2023-03-02T04:48:25.495Z,101610.63
2023-03-02T04:49:27.301Z,101619.17
2023-03-02T04:50:29.141Z,101619.17
2023-03-02T04:51:30.975Z,101617.39
2023-03-02T04:52:32.796Z,101623.33
2023-03-02T04:53:34.583Z,101623.33
2023-03-02T04:54:36.381Z,101620.67
2023-03-02T04:55:38.221Z,101621.58
2023-03-02T04:56:40.042Z,101622.45
2023-03-02T04:57:41.847Z,101620.75
2023-03-02T04:58:43.640Z,101620.84
2023-03-02T04:59:45.447Z,101624.31
2023-03-02T05:00:47.371Z,101621.75
2023-03-02T05:01:49.303Z,101622.62
2023-03-02T05:02:51.419Z,101615.77
2023-03-02T05:03:53.245Z,101620.92
2023-03-02T05:04:55.152Z,101618.34
2023-03-02T05:05:57.073Z,101618.34
2023-03-02T05:06:59.095Z,101620.13
2023-03-02T05:08:00.811Z,101621.09
2023-03-02T05:09:02.597Z,101627.14
2023-03-02T05:10:04.606Z,101626.31
2023-03-02T05:11:06.470Z,101631.55
2023-03-02T05:12:08.265Z,101629.87
2023-03-02T05:13:10.067Z,101627.47
2023-03-02T05:14:11.883Z,101628.52
2023-03-02T05:15:13.701Z,101633.73
2023-03-02T05:16:15.706Z,101621.86
2023-03-02T05:17:17.570Z,101630.54
2023-03-02T05:18:19.368Z,101631.49
2023-03-02T05:19:21.181Z,101631.58
2023-03-02T05:20:22.986Z,101633.52
2023-03-02T05:21:24.818Z,101639.70
2023-03-02T05:22:26.626Z,101635.62
2023-03-02T05:23:28.441Z,101638.37
2023-03-02T05:24:30.239Z,101641.19
2023-03-02T05:25:32.051Z,101636.28
2023-03-02T05:26:34.274Z,101636.52
2023-03-02T05:27:36.247Z,101633.31
2023-03-02T05:28:38.048Z,101631.94
2023-03-02T05:29:39.855Z,101635.66
2023-03-02T05:30:41.667Z,101630.82
2023-03-02T05:31:43.589Z,101635.41
2023-03-02T05:32:45.341Z,101630.58
2023-03-02T05:33:47.134Z,101637.70
2023-03-02T05:34:48.957Z,101641.34
2023-03-02T05:35:50.843Z,101641.58
2023-03-02T05:36:52.754Z,101643.59
2023-03-02T05:37:54.559Z,101639.55
2023-03-02T05:38:56.361Z,101637.20
2023-03-02T05:39:58.181Z,101646.86
2023-03-02T05:40:59.988Z,101645.39
2023-03-02T05:42:01.848Z,101649.17
2023-03-02T05:43:03.653Z,101644.32
2023-03-02T05:44:05.476Z,101649.78
2023-03-02T05:45:07.281Z,101646.55
2023-03-02T05:46:09.302Z,101651.94
2023-03-02T05:47:11.179Z,101655.69
2023-03-02T05:48:12.973Z,101652.53
2023-03-02T05:49:14.775Z,101654.49
2023-03-02T05:50:16.782Z,101649.66
2023-03-02T05:51:18.586Z,101648.17
2023-03-02T05:52:20.438Z,101654.50
2023-03-02T05:53:22.298Z,101658.27
2023-03-02T05:54:24.100Z,101655.98
2023-03-02T05:55:25.894Z,101657.14
2023-03-02T05:56:27.715Z,101657.45
2023-03-02T05:57:29.586Z,101655.13
2023-03-02T05:58:31.376Z,101656.27
2023-03-02T05:59:33.176Z,101659.14
2023-03-02T06:00:34.986Z,101662.88
2023-03-02T06:01:36.854Z,101656.23
2023-03-02T06:02:38.669Z,101653.13
2023-03-02T06:03:40.449Z,101659.51
2023-03-02T06:04:42.238Z,101654.55
2023-03-02T06:05:44.047Z,101651.42
2023-03-02T06:06:45.955Z,101655.98
2023-03-02T06:07:47.788Z,101649.38
2023-03-02T06:08:49.612Z,101657.39
2023-03-02T06:09:51.398Z,101655.01
2023-03-02T06:10:53.205Z,101651.01
2023-03-02T06:11:55.020Z,101658.12
2023-03-02T06:12:56.868Z,101659.28
2023-03-02T06:13:58.684Z,101656.89
2023-03-02T06:15:00.568Z,101645.88
2023-03-02T06:16:02.436Z,101646.87
2023-03-02T06:17:04.278Z,101650.45
2023-03-02T06:18:06.135Z,101661.02
2023-03-02T06:19:07.954Z,101652.48
2023-03-02T06:20:09.967Z,101656.98
2023-03-02T06:21:11.817Z,101657.97
2023-03-02T06:22:13.617Z,101655.52
2023-03-02T06:23:15.580Z,101656.55
2023-03-02T06:24:17.382Z,101663.62
2023-03-02T06:25:19.181Z,101659.44
2023-03-02T06:26:21.104Z,101654.39
2023-03-02T06:27:22.914Z,101663.09
2023-03-02T06:28:24.762Z,101667.52
2023-03-02T06:29:26.576Z,101655.50
2023-03-02T06:30:28.378Z,101664.30
2023-03-02T06:31:30.190Z,101662.64
2023-03-02T06:32:32.010Z,101659.30
2023-03-02T06:33:33.825Z,101663.73
2023-03-02T06:34:35.629Z,101662.95
2023-03-02T06:35:37.553Z,101665.72
2023-03-02T06:36:39.600Z,101671.86
2023-03-02T06:37:44.057Z,101667.67
2023-03-02T06:38:45.143Z,101667.80
2023-03-02T06:39:46.965Z,101674.81
2023-03-02T06:40:48.743Z,101673.16
2023-03-02T06:41:50.548Z,101669.84
2023-03-02T06:42:52.345Z,101672.48
2023-03-02T06:43:54.207Z,101677.67
2023-03-02T06:44:56.030Z,101665.66
2023-03-02T06:45:57.855Z,101672.67
2023-03-02T06:46:59.637Z,101677.97
2023-03-02T06:48:01.430Z,101675.49
2023-03-02T06:49:03.281Z,101679.08
2023-03-02T06:50:05.099Z,101680.16
2023-03-02T06:51:06.876Z,101679.34
2023-03-02T06:52:08.715Z,101680.27
2023-03-02T06:53:10.542Z,101677.80
2023-03-02T06:54:12.394Z,101673.60
2023-03-02T06:55:14.193Z,101672.03
2023-03-02T06:56:16.209Z,101670.38
2023-03-02T06:57:17.995Z,101674.80
2023-03-02T06:58:19.810Z,101669.67
2023-03-02T06:59:21.664Z,101679.24
2023-03-02T07:00:25.657Z,101677.61
2023-03-02T07:01:27.140Z,101677.67
2023-03-02T07:02:29.012Z,101670.88
2023-03-02T07:03:30.873Z,101675.25
2023-03-02T07:04:32.669Z,101676.17
2023-03-02T07:05:34.478Z,101671.00
2023-03-02T07:06:36.279Z,101670.13
2023-03-02T07:07:38.074Z,101675.36
2023-03-02T07:08:39.921Z,101670.29
2023-03-02T07:09:41.786Z,101676.41
2023-03-02T07:10:43.578Z,101670.34
2023-03-02T07:11:45.374Z,101671.27
2023-03-02T07:12:47.385Z,101671.27
2023-03-02T07:13:49.207Z,101673.05
2023-03-02T07:14:51.050Z,101672.99
2023-03-02T07:15:52.859Z,101660.09
2023-03-02T07:16:54.909Z,101665.27
2023-03-02T07:17:56.677Z,101668.73
2023-03-02T07:18:58.471Z,101665.22
2023-03-02T07:20:00.310Z,101667.00
2023-03-02T07:21:02.107Z,101669.53
2023-03-02T07:22:03.922Z,101667.75
2023-03-02T07:23:05.726Z,101672.06
2023-03-02T07:24:07.541Z,101672.94
2023-03-02T07:25:09.376Z,101666.94
2023-03-02T07:26:11.473Z,101665.98
2023-03-02T07:27:13.299Z,101663.33
2023-03-02T07:28:15.087Z,101666.83
2023-03-02T07:29:16.908Z,101665.92
2023-03-02T07:30:18.886Z,101671.11
2023-03-02T07:31:20.718Z,101658.15
2023-03-02T07:32:22.579Z,101671.11
2023-03-02T07:33:24.424Z,101671.05
2023-03-02T07:34:26.765Z,101672.71
2023-03-02T07:35:28.770Z,101668.34
2023-03-02T07:36:30.618Z,101664.02
2023-03-02T07:37:32.412Z,101669.20
2023-03-02T07:38:34.219Z,101667.36
2023-03-02T07:39:36.021Z,101667.30
2023-03-02T07:40:37.886Z,101667.95
2023-03-02T07:41:39.688Z,101672.20
2023-03-02T07:42:41.495Z,101666.91
2023-03-02T07:43:43.321Z,101672.79
2023-03-02T07:44:45.127Z,101670.14
2023-03-02T07:45:46.979Z,101670.90
2023-03-02T07:46:48.867Z,101665.60
2023-03-02T07:47:50.813Z,101665.48
2023-03-02T07:48:52.629Z,101670.61
2023-03-02T07:49:54.435Z,101665.38
2023-03-02T07:50:56.289Z,101674.91
2023-03-02T07:51:58.108Z,101673.08
2023-03-02T07:53:00.162Z,101676.48
2023-03-02T07:54:02.046Z,101672.96
2023-03-02T07:55:03.838Z,101670.31
2023-03-02T07:56:05.791Z,101675.38
2023-03-02T07:57:07.621Z,101667.55
2023-03-02T07:58:09.426Z,101660.59
2023-03-02T07:59:11.228Z,101676.07
2023-03-02T08:00:14.151Z,101670.89
2023-03-02T08:01:16.052Z,101670.95
2023-03-02T08:02:17.847Z,101669.27
2023-03-02T08:03:19.648Z,101665.72
2023-03-02T08:04:21.475Z,101669.20
2023-03-02T08:05:23.285Z,101661.44
2023-03-02T08:06:25.127Z,101665.72
2023-03-02T08:07:26.958Z,101661.44
2023-03-02T08:08:28.759Z,101661.44
2023-03-02T08:09:30.580Z,101660.53
2023-03-02T08:10:32.582Z,101660.53
2023-03-02T08:11:34.729Z,101657.89
2023-03-02T08:12:36.744Z,101668.13
2023-03-02T08:13:38.591Z,101669.69
2023-03-02T08:14:40.400Z,101670.50
2023-03-02T08:15:42.200Z,101667.86
2023-03-02T08:16:44.341Z,101671.25
2023-03-02T08:17:46.166Z,101664.34
2023-03-02T08:18:48.069Z,101662.55
2023-03-02T08:19:49.914Z,101666.92
2023-03-02T08:20:51.831Z,101666.02
2023-03-02T08:21:53.719Z,101664.16
2023-03-02T08:22:55.504Z,101658.91
2023-03-02T08:23:57.331Z,101653.80
2023-03-02T08:24:59.109Z,101664.91
2023-03-02T08:26:00.914Z,101656.09
2023-03-02T08:27:02.777Z,101655.13
2023-03-02T08:28:04.601Z,101655.06
2023-03-02T08:29:06.396Z,101655.06
2023-03-02T08:30:09.019Z,101653.44
2023-03-02T08:31:10.959Z,101650.91
2023-03-02T08:32:13.076Z,101643.95
2023-03-02T08:33:14.949Z,101649.95
2023-03-02T08:34:16.772Z,101648.32
2023-03-02T08:35:18.603Z,101654.48
2023-03-02T08:36:20.400Z,101647.59
2023-03-02T08:37:22.265Z,101649.38
2023-03-02T08:38:24.069Z,101644.26
2023-03-02T08:39:27.379Z,101648.69
2023-03-02T08:40:29.497Z,101644.44
2023-03-02T08:41:31.517Z,101645.31
2023-03-02T08:42:33.642Z,101641.79
2023-03-02T08:43:35.473Z,101645.25
2023-03-02T08:44:37.385Z,101636.61
2023-03-02T08:45:39.223Z,101640.98
2023-03-02T08:46:41.009Z,101645.25
2023-03-02T08:47:42.849Z,101646.03
2023-03-02T08:48:44.656Z,101645.98
2023-03-02T08:49:48.001Z,101635.56
2023-03-02T08:50:50.199Z,101636.44
2023-03-02T08:51:51.993Z,101636.44
2023-03-02T08:52:53.842Z,101627.80
2023-03-02T08:53:55.667Z,101634.66
2023-03-02T08:54:57.501Z,101627.63
2023-03-02T08:56:01.092Z,101626.59
2023-03-02T08:57:03.125Z,101636.77
2023-03-02T08:58:04.955Z,101636.77
2023-03-02T08:59:06.772Z,101625.61
2023-03-02T09:00:09.599Z,101627.28
2023-03-02T09:01:11.446Z,101634.18
2023-03-02T09:02:13.223Z,101636.64
2023-03-02T09:03:15.080Z,101634.00
2023-03-02T09:04:17.029Z,101634.06
2023-03-02T09:05:18.869Z,101631.59
2023-03-02T09:06:20.711Z,101636.88
2023-03-02T09:07:22.519Z,101634.36
2023-03-02T09:08:24.352Z,101631.89
2023-03-02T09:09:26.180Z,101632.01
2023-03-02T09:10:27.979Z,101632.12
2023-03-02T09:11:29.804Z,101640.91
2023-03-02T09:12:31.609Z,101629.08
2023-03-02T09:13:33.453Z,101634.32
2023-03-02T09:14:35.260Z,101637.81
2023-03-02T09:15:37.082Z,101642.23
2023-03-02T09:16:39.061Z,101635.38
2023-03-02T09:17:40.898Z,101637.97
2023-03-02T09:18:42.751Z,101636.97
2023-03-02T09:19:44.786Z,101641.22
2023-03-02T09:20:46.679Z,101639.38
2023-03-02T09:21:48.473Z,101641.09
2023-03-02T09:22:50.290Z,101646.16
2023-03-02T09:23:52.138Z,101646.97
2023-03-02T09:24:53.964Z,101641.79
2023-03-02T09:25:55.774Z,101635.68
2023-03-02T09:26:57.572Z,101642.42
2023-03-02T09:27:59.387Z,101636.13
2023-03-02T09:29:01.236Z,101633.42
2023-03-02T09:30:03.250Z,101637.85
2023-03-02T09:31:05.087Z,101642.18
2023-03-02T09:32:07.033Z,101633.61
2023-03-02T09:33:08.957Z,101629.36
2023-03-02T09:34:10.772Z,101641.43
2023-03-02T09:35:12.570Z,101636.25
2023-03-02T09:36:14.907Z,101632.91
2023-03-02T09:37:16.726Z,101630.45
2023-03-02T09:38:18.590Z,101625.45
2023-03-02T09:39:20.584Z,101619.59
2023-03-02T09:40:22.384Z,101617.16
2023-03-02T09:41:24.193Z,101619.75
2023-03-02T09:42:38.099Z,101618.94
2023-03-02T09:43:29.626Z,101616.34
2023-03-02T09:44:31.496Z,101618.12
2023-03-02T09:45:33.315Z,101612.95
2023-03-02T09:46:35.104Z,101620.83
2023-03-02T09:47:36.925Z,101620.02
2023-03-02T09:48:38.727Z,101611.41
2023-03-02T09:49:40.599Z,101613.12
2023-03-02T09:50:42.591Z,101617.42
2023-03-02T09:51:44.406Z,101614.89
2023-03-02T09:52:46.240Z,101617.59
2023-03-02T09:53:48.043Z,101612.42
2023-03-02T09:54:49.912Z,101618.59
2023-03-02T09:55:51.718Z,101615.19
2023-03-02T09:56:53.638Z,101615.99
2023-03-02T09:57:55.470Z,101612.48
2023-03-02T09:58:57.269Z,101613.23
2023-03-02T10:00:04.013Z,101614.05
2023-03-02T10:01:02.752Z,101609.77
2023-03-02T10:02:04.609Z,101614.16
2023-03-02T10:03:16.766Z,101615.88
2023-03-02T10:04:10.138Z,101608.05
2023-03-02T10:05:12.052Z,101610.70
2023-03-02T10:06:14.081Z,101615.12
2023-03-02T10:07:15.993Z,101619.45
2023-03-02T10:08:17.820Z,101618.64
2023-03-02T10:09:19.643Z,101614.33
2023-03-02T10:10:21.621Z,101612.70
2023-03-02T10:11:23.452Z,101610.06
2023-03-02T10:12:25.243Z,101602.17
2023-03-02T10:13:27.061Z,101605.47
2023-03-02T10:14:28.884Z,101601.83
2023-03-02T10:15:30.781Z,101602.53
2023-03-02T10:16:33.236Z,101607.62
2023-03-02T10:17:35.333Z,101600.81
2023-03-02T10:18:37.176Z,101608.58
2023-03-02T10:19:38.982Z,101607.77
2023-03-02T10:20:40.850Z,101600.92
2023-03-02T10:21:42.650Z,101601.05
2023-03-02T10:22:44.472Z,101604.59
2023-03-02T10:23:46.298Z,101608.05
2023-03-02T10:24:48.108Z,101608.00
2023-03-02T10:25:49.957Z,101601.05
2023-03-02T10:26:51.873Z,101596.66
2023-03-02T10:27:53.761Z,101605.03
2023-03-02T10:28:55.659Z,101605.84
2023-03-02T10:29:57.500Z,101604.22
2023-03-02T10:30:59.519Z,101612.95
2023-03-02T10:32:01.373Z,101609.59
2023-03-02T10:33:03.134Z,101609.72
2023-03-02T10:34:04.958Z,101606.34
2023-03-02T10:35:06.780Z,101603.92
2023-03-02T10:36:08.641Z,101605.87
2023-03-02T10:37:10.459Z,101605.00
2023-03-02T10:38:12.267Z,101605.87
2023-03-02T10:39:14.088Z,101612.06
2023-03-02T10:40:16.450Z,101609.58
2023-03-02T10:41:18.362Z,101603.55
2023-03-02T10:42:20.151Z,101604.52
2023-03-02T10:43:21.909Z,101598.43
2023-03-02T10:44:23.830Z,101601.98
2023-03-02T10:45:25.604Z,101600.38
2023-03-02T10:46:27.477Z,101599.56
2023-03-02T10:47:29.333Z,101603.95
2023-03-02T10:48:31.310Z,101602.38
2023-03-02T10:49:33.147Z,101584.30
2023-03-02T10:50:34.965Z,101592.17
2023-03-02T10:51:36.857Z,101587.81
2023-03-02T10:52:42.367Z,101593.89
2023-03-02T10:53:42.724Z,101596.42
2023-03-02T10:54:44.550Z,101597.19
2023-03-02T10:55:46.341Z,101592.06
2023-03-02T10:56:48.301Z,101595.58
2023-03-02T10:57:50.144Z,101593.89
2023-03-02T10:58:51.958Z,101593.95
2023-03-02T10:59:53.799Z,101589.69
2023-03-02T11:00:55.886Z,101593.20
2023-03-02T11:01:57.882Z,101588.98
2023-03-02T11:02:59.723Z,101590.02
2023-03-02T11:04:01.534Z,101583.96
2023-03-02T11:05:03.680Z,101586.45
2023-03-02T11:06:05.698Z,101591.41
2023-03-02T11:07:07.565Z,101583.53
2023-03-02T11:08:09.351Z,101572.27
2023-03-02T11:09:11.155Z,101579.11
2023-03-02T11:10:13.989Z,101589.53
2023-03-02T11:11:15.803Z,101586.94
2023-03-02T11:12:17.666Z,101582.63
2023-03-02T11:13:19.459Z,101577.44
2023-03-02T11:14:21.258Z,101587.75
2023-03-02T11:15:23.107Z,101583.47
2023-03-02T11:16:25.040Z,101591.16
2023-03-02T11:17:26.870Z,101589.42
2023-03-02T11:18:28.667Z,101588.66
2023-03-02T11:19:30.492Z,101582.63
2023-03-02T11:20:32.288Z,101584.45
2023-03-02T11:21:34.384Z,101587.16
2023-03-02T11:22:36.468Z,101582.08
2023-03-02T11:23:38.184Z,101589.09
2023-03-02T11:24:39.978Z,101589.96
2023-03-02T11:25:41.780Z,101587.42
2023-03-02T11:26:43.583Z,101578.89
2023-03-02T11:27:45.444Z,101581.64
2023-03-02T11:28:47.262Z,101583.47
2023-03-02T11:29:49.067Z,101579.16
2023-03-02T11:30:50.990Z,101574.84
2023-03-02T11:31:52.895Z,101587.85
2023-03-02T11:32:55.780Z,101568.02
2023-03-02T11:33:59.823Z,101570.66
2023-03-02T11:35:01.243Z,101571.64
2023-03-02T11:36:03.212Z,101570.77
2023-03-02T11:37:05.078Z,101571.59
2023-03-02T11:38:06.931Z,101569.92
2023-03-02T11:39:08.744Z,101568.17
2023-03-02T11:40:11.060Z,101571.59
2023-03-02T11:41:12.866Z,101574.18
2023-03-02T11:42:14.690Z,101573.36
2023-03-02T11:43:16.540Z,101575.95
2023-03-02T11:44:18.358Z,101571.53
2023-03-02T11:45:20.149Z,101569.76
2023-03-02T11:46:23.332Z,101566.41